Time;durP1;ratioP1;P1;durP2;ratioP2;P2;SDS_P1;SDS_P2;PMS_P1;PMS_P2;Temp;Humidity;BMP_temperature;BMP_pressure;BME280_temperature;BME280_humidity;BME280_pressure;Samples;Min_cycle;Max_cycle;Signal;HPM_P1;HPM_P2
2024/04/16 00:02:03;;;;;;;5.38;1.90;;;;;;;7.29;68.09;98047.66;5496592;26;20002;-71
2024/04/16 00:04:29;;;;;;;5.68;5.07;;;;;;;7.43;68.04;98078.38;5424419;26;19998;-70
2024/04/16 00:06:58;;;;;;;9.60;7.78;;;;;;;7.15;67.97;98045.41;5464106;26;20116;-70
2024/04/16 00:09:24;;;;;;;10.27;7.25;;;;;;;7.52;68.06;98095.41;5437460;26;20002;-70
2024/04/16 00:11:50;;;;;;;8.55;5.75;;;;;;;7.30;68.01;98070.03;5433121;26;20047;-70
2024/04/16 00:14:32;;;;;;;11.57;6.35;;;;;;;7.24;67.92;98049.50;5452270;26;20006;-71
2024/04/16 00:17:01;;;;;;;9.52;4.93;;;;;;;7.33;67.68;98069.97;5434162;26;20021;-70
2024/04/16 00:19:27;;;;;;;11.07;8.77;;;;;;;7.41;67.91;98093.09;5466594;26;20655;-72
2024/04/16 00:21:53;;;;;;;9.13;5.38;;;;;;;7.36;67.70;98079.44;5467651;26;20030;-70
2024/04/16 00:24:19;;;;;;;5.53;4.53;;;;;;;7.30;67.79;98067.47;5395755;26;20016;-70
2024/04/16 00:26:45;;;;;;;5.57;3.90;;;;;;;7.47;67.61;98105.91;5436234;26;20042;-70
2024/04/16 00:29:11;;;;;;;4.35;3.05;;;;;;;7.32;67.66;98086.38;5438003;26;20050;-71
2024/04/16 00:31:38;;;;;;;4.95;2.85;;;;;;;7.38;67.79;98109.53;5436909;26;20058;-71
2024/04/16 00:34:06;;;;;;;3.80;1.90;;;;;;;7.27;67.60;98080.50;5456483;26;20013;-69
2024/04/16 00:36:36;;;;;;;3.85;2.20;;;;;;;7.19;67.50;98087.56;5425460;26;20015;-72
2024/04/16 00:39:02;;;;;;;5.82;4.65;;;;;;;7.28;67.58;98113.25;5423700;26;20014;-72
2024/04/16 00:41:29;;;;;;;10.38;7.45;;;;;;;7.22;67.44;98103.84;5436421;26;20002;-71
2024/04/16 00:43:55;;;;;;;12.52;8.60;;;;;;;7.30;67.72;98116.63;5405013;26;20726;-71
2024/04/16 00:46:21;;;;;;;5.97;3.88;;;;;;;7.04;67.62;98073.22;5434416;26;20652;-72
2024/04/16 00:48:48;;;;;;;5.65;2.70;;;;;;;7.05;67.44;98074.94;5466017;26;20030;-72
2024/04/16 00:51:14;;;;;;;6.45;2.17;;;;;;;7.32;67.59;98127.78;5466339;26;20002;-73
2024/04/16 00:53:41;;;;;;;4.05;2.65;;;;;;;7.14;67.29;98103.19;5465209;26;19994;-71
2024/04/16 00:56:08;;;;;;;3.70;3.10;;;;;;;7.31;67.19;98127.84;5464743;26;20433;-71
2024/04/16 00:58:38;;;;;;;5.30;4.00;;;;;;;7.28;67.03;98125.31;5405804;26;20476;-70
2024/04/16 01:01:04;;;;;;;5.20;3.20;;;;;;;7.32;67.36;98126.94;5397217;26;20504;-70
2024/04/16 01:03:30;;;;;;;6.40;4.38;;;;;;;7.38;66.76;98142.34;5437034;26;22066;-72
2024/04/16 01:05:56;;;;;;;10.10;7.90;;;;;;;7.22;66.51;98111.63;5425830;26;22234;-71
2024/04/16 01:08:22;;;;;;;10.90;8.75;;;;;;;6.99;67.03;98082.81;5454937;26;20010;-70
2024/04/16 01:10:48;;;;;;;9.20;6.63;;;;;;;7.25;66.75;98126.25;5436448;26;20017;-70
2024/04/16 01:13:14;;;;;;;5.38;4.28;;;;;;;6.94;66.72;98077.75;5404734;26;20500;-71
2024/04/16 01:15:40;;;;;;;7.07;3.78;;;;;;;7.24;66.59;98137.47;5404576;26;20004;-72
2024/04/16 01:18:07;;;;;;;8.95;4.68;;;;;;;6.99;66.28;98098.34;5434972;26;20002;-72
2024/04/16 01:20:34;;;;;;;6.15;3.05;;;;;;;7.30;66.25;98142.50;5434816;26;20121;-70
2024/04/16 01:23:00;;;;;;;3.08;1.95;;;;;;;7.13;65.84;98111.84;5453895;26;19998;-70
2024/04/16 01:25:27;;;;;;;2.92;1.60;;;;;;;7.29;66.02;98143.38;5407982;26;20484;-69
2024/04/16 01:27:53;;;;;;;2.10;1.20;;;;;;;7.36;66.37;98154.47;5466018;26;20017;-70
2024/04/16 01:30:19;;;;;;;2.25;1.63;;;;;;;7.18;65.99;98122.09;5431147;26;20006;-71
2024/04/16 01:32:46;;;;;;;2.38;1.15;;;;;;;7.38;66.06;98132.00;5467202;26;20144;-70
2024/04/16 01:35:12;;;;;;;1.75;1.35;;;;;;;7.21;65.88;98099.56;5428102;26;20070;-70
2024/04/16 01:37:38;;;;;;;2.20;1.20;;;;;;;7.35;65.62;98135.50;5405056;26;22280;-69
2024/04/16 01:40:04;;;;;;;2.80;1.02;;;;;;;7.21;65.74;98117.69;5426383;26;20495;-70
2024/04/16 01:42:32;;;;;;;1.95;1.00;;;;;;;7.34;65.75;98132.94;5432049;26;20587;-70
2024/04/16 01:44:59;;;;;;;2.25;1.48;;;;;;;7.35;65.23;98152.78;5404937;26;20016;-68
2024/04/16 01:47:26;;;;;;;1.92;1.10;;;;;;;7.30;65.38;98146.84;5432301;26;20006;-69
2024/04/16 01:49:52;;;;;;;2.38;1.05;;;;;;;7.22;65.52;98150.44;5441862;26;19999;-71
2024/04/16 01:52:18;;;;;;;2.97;1.20;;;;;;;7.30;65.39;98157.19;5429664;26;20505;-70
2024/04/16 01:54:44;;;;;;;2.97;1.20;;;;;;;7.16;65.29;98129.88;5393808;26;20009;-70
2024/04/16 01:57:10;;;;;;;2.35;1.25;;;;;;;7.24;65.20;98137.47;5342618;26;20011;-68
2024/04/16 01:59:37;;;;;;;2.40;1.20;;;;;;;7.38;65.11;98156.13;5358562;26;20015;-70
2024/04/16 02:02:03;;;;;;;3.35;1.25;;;;;;;7.32;64.68;98139.88;5422591;26;20081;-70
2024/04/16 02:04:30;;;;;;;2.33;1.20;;;;;;;7.46;64.77;98171.47;5400942;26;20034;-69
2024/04/16 02:06:56;;;;;;;8.02;1.58;;;;;;;7.49;64.78;98166.25;5400831;26;20028;-71
2024/04/16 02:09:22;;;;;;;2.92;1.20;;;;;;;7.35;64.50;98132.06;5399763;26;20011;-73
2024/04/16 02:11:48;;;;;;;4.65;1.30;;;;;;;7.30;64.52;98115.78;5404638;26;19998;-72
2024/04/16 02:14:14;;;;;;;4.30;1.52;;;;;;;7.46;64.40;98124.91;5373216;26;20032;-73
2024/04/16 02:16:40;;;;;;;2.97;1.30;;;;;;;7.65;64.40;98158.13;5370544;26;20466;-73
2024/04/16 02:19:07;;;;;;;2.42;1.20;;;;;;;7.73;63.89;98165.69;5345202;26;20030;-71
2024/04/16 02:21:33;;;;;;;2.67;1.33;;;;;;;7.44;64.32;98113.72;5342413;26;20003;-71
2024/04/16 02:23:59;;;;;;;2.42;1.40;;;;;;;7.70;63.85;98164.03;5400796;26;20007;-71
2024/04/16 02:26:26;;;;;;;2.80;1.17;;;;;;;7.44;63.97;98123.25;5391337;26;20035;-70
2024/04/16 02:28:52;;;;;;;3.13;1.20;;;;;;;7.63;63.49;98162.47;5401467;26;19995;-70
2024/04/16 02:31:18;;;;;;;4.43;1.50;;;;;;;7.69;63.79;98181.34;5398334;26;20027;-70
2024/04/16 02:33:45;;;;;;;4.55;1.40;;;;;;;7.57;63.56;98167.81;5365517;26;20015;-69
2024/04/16 02:36:11;;;;;;;4.38;1.23;;;;;;;7.53;63.56;98175.66;5368419;26;20007;-71
2024/04/16 02:38:37;;;;;;;2.53;1.30;;;;;;;7.53;63.40;98169.59;5371576;26;20488;-71
2024/04/16 02:41:03;;;;;;;2.95;1.48;;;;;;;7.52;63.58;98173.94;5387665;26;20014;-71
2024/04/16 02:43:29;;;;;;;3.08;1.45;;;;;;;7.41;63.41;98152.59;5388585;26;20480;-71
2024/04/16 02:45:55;;;;;;;3.92;1.17;;;;;;;7.41;62.92;98165.56;5341497;26;20031;-71
2024/04/16 02:48:22;;;;;;;3.80;1.30;;;;;;;7.44;63.35;98165.47;5332654;26;20080;-71
2024/04/16 02:50:52;;;;;;;2.50;1.20;;;;;;;7.57;63.55;98191.94;5409212;26;20006;-70
2024/04/16 02:53:18;;;;;;;1.83;1.17;;;;;;;7.68;63.46;98204.66;5398340;26;20038;-71
2024/04/16 02:55:44;;;;;;;3.83;1.15;;;;;;;7.52;63.73;98168.75;5468367;26;20009;-70
2024/04/16 02:58:10;;;;;;;5.50;1.80;;;;;;;7.71;63.22;98202.00;5408043;26;20079;-70
2024/04/16 03:00:38;;;;;;;5.88;1.70;;;;;;;7.83;63.38;98209.47;5456896;26;20044;-71
2024/04/16 03:03:04;;;;;;;3.92;1.50;;;;;;;7.69;62.98;98186.50;5439308;26;20006;-70
2024/04/16 03:05:30;;;;;;;5.68;1.30;;;;;;;7.60;63.14;98178.09;5467180;26;19999;-70
2024/04/16 03:07:56;;;;;;;2.22;1.30;;;;;;;7.84;62.95;98221.53;5468297;26;20026;-71
2024/04/16 03:10:23;;;;;;;2.58;1.30;;;;;;;7.80;62.79;98235.47;5466590;26;20067;-71
2024/04/16 03:12:53;;;;;;;2.45;1.58;;;;;;;7.49;62.63;98171.41;5435451;26;20006;-70
2024/04/16 03:15:19;;;;;;;1.55;1.15;;;;;;;7.90;63.04;98219.69;5464533;26;20006;-70
2024/04/16 03:17:46;;;;;;;3.65;1.20;;;;;;;8.00;62.58;98231.56;5466728;26;20010;-71
2024/04/16 03:20:15;;;;;;;3.13;1.25;;;;;;;7.97;62.71;98222.09;5435643;26;20074;-70
2024/04/16 03:22:41;;;;;;;2.72;1.20;;;;;;;7.84;62.28;98195.63;5466455;26;20003;-71
2024/04/16 03:25:07;;;;;;;2.55;1.40;;;;;;;8.06;62.37;98231.41;5467523;26;20018;-70
2024/04/16 03:27:34;;;;;;;3.55;1.23;;;;;;;8.00;62.25;98218.59;5405536;26;19998;-71
2024/04/16 03:30:00;;;;;;;4.28;1.40;;;;;;;8.12;62.44;98241.63;5453547;26;20011;-70
2024/04/16 03:32:27;;;;;;;2.25;1.10;;;;;;;7.77;62.36;98172.50;5460928;26;20002;-71
2024/04/16 03:34:53;;;;;;;2.28;1.33;;;;;;;8.27;62.65;98257.72;5467277;26;20009;-71
2024/04/16 03:37:19;;;;;;;1.50;1.00;;;;;;;8.02;61.53;98214.25;5466187;26;20010;-71
2024/04/16 03:39:45;;;;;;;4.43;1.30;;;;;;;8.25;61.98;98254.31;5436487;26;20372;-71
2024/04/16 03:42:12;;;;;;;3.50;1.42;;;;;;;8.19;61.72;98259.63;5434967;26;20043;-72
2024/04/16 03:44:38;;;;;;;3.70;1.40;;;;;;;8.13;61.58;98260.63;5396714;26;20011;-71
2024/04/16 03:47:05;;;;;;;4.75;1.23;;;;;;;7.94;61.74;98229.09;5406905;26;20002;-72
2024/04/16 03:49:31;;;;;;;3.85;1.60;;;;;;;8.13;61.14;98263.22;5462245;26;20477;-70
2024/04/16 03:51:57;;;;;;;6.15;1.58;;;;;;;8.19;61.28;98277.75;5369192;26;20022;-73
2024/04/16 03:54:24;;;;;;;6.13;1.92;;;;;;;8.10;61.42;98256.34;5362858;26;20059;-71
2024/04/16 03:56:50;;;;;;;3.60;1.40;;;;;;;8.13;61.39;98260.63;5372694;26;20007;-71
2024/04/16 04:00:59;;;;;;;3.22;1.30;;;;;;;8.13;61.12;98271.00;5372034;26;20173;-68
2024/04/16 04:02:24;;;;;;;3.38;1.58;;;;;;;7.93;61.16;98256.75;5372850;26;19999;-71
2024/04/16 04:04:51;;;;;;;4.28;1.35;;;;;;;8.04;61.03;98271.19;5428610;26;20484;-72
2024/04/16 04:07:18;;;;;;;3.75;1.50;;;;;;;7.94;61.03;98262.78;5370673;26;20058;-70
2024/04/16 04:09:45;;;;;;;2.08;1.20;;;;;;;8.10;61.17;98281.41;5399693;26;20018;-70
2024/04/16 04:12:20;;;;;;;4.22;1.40;;;;;;;8.18;61.26;98291.59;5332458;26;20010;-70
2024/04/16 04:14:46;;;;;;;4.93;1.88;;;;;;;8.07;60.82;98279.72;5390201;26;19995;-70
2024/04/16 04:17:12;;;;;;;3.92;1.58;;;;;;;8.26;60.56;98315.63;5368435;26;20386;-72
2024/04/16 04:19:38;;;;;;;3.33;1.30;;;;;;;8.26;60.77;98326.81;5358348;26;20210;-70
2024/04/16 04:22:05;;;;;;;2.45;0.93;;;;;;;8.01;60.79;98279.03;5403153;26;20061;-70
2024/04/16 04:24:31;;;;;;;1.95;1.10;;;;;;;8.26;60.45;98325.97;5341933;26;19999;-71
2024/04/16 04:26:57;;;;;;;2.40;1.15;;;;;;;8.18;60.71;98312.34;5372212;26;20016;-71
2024/04/16 04:29:23;;;;;;;2.67;1.25;;;;;;;8.12;60.53;98296.03;5370120;26;20018;-72
2024/04/16 04:31:49;;;;;;;3.88;1.10;;;;;;;7.94;60.45;98267.97;5371357;26;19994;-72
2024/04/16 04:34:15;;;;;;;3.03;1.13;;;;;;;8.07;60.22;98303.06;5394499;26;19999;-72
2024/04/16 04:36:41;;;;;;;1.98;1.10;;;;;;;8.02;60.51;98315.28;5430768;26;20027;-71
2024/04/16 04:39:07;;;;;;;3.47;1.30;;;;;;;8.07;60.34;98320.34;5370774;26;20491;-72
2024/04/16 04:41:33;;;;;;;2.20;1.30;;;;;;;8.05;60.41;98304.84;5398393;26;19999;-71
2024/04/16 04:44:00;;;;;;;3.10;1.20;;;;;;;8.21;60.88;98317.44;5362154;26;20025;-71
2024/04/16 04:46:27;;;;;;;2.00;1.40;;;;;;;8.30;60.46;98317.22;5418747;26;20014;-72
2024/04/16 04:48:53;;;;;;;3.20;1.58;;;;;;;8.29;60.40;98307.75;5328431;26;20406;-74
2024/04/16 04:51:19;;;;;;;2.30;1.35;;;;;;;8.43;60.36;98317.78;5441182;26;20023;-70
2024/04/16 04:53:48;;;;;;;2.22;1.35;;;;;;;8.19;60.42;98281.19;5463626;26;20021;-72
2024/04/16 04:56:14;;;;;;;3.38;1.55;;;;;;;8.24;60.04;98281.09;5434543;26;20648;-71
2024/04/16 04:58:41;;;;;;;1.90;1.20;;;;;;;8.21;59.86;98292.38;5486187;26;20006;-69
2024/04/16 05:01:07;;;;;;;2.67;1.10;;;;;;;8.13;60.11;98279.59;5466202;26;19994;-71
2024/04/16 05:03:33;;;;;;;2.38;1.40;;;;;;;8.38;60.20;98304.94;5433976;26;20012;-70
2024/04/16 05:05:59;;;;;;;3.45;1.38;;;;;;;8.64;60.10;98321.66;5467170;26;20010;-71
2024/04/16 05:08:28;;;;;;;3.17;1.48;;;;;;;8.64;59.80;98310.41;5463491;26;20018;-72
2024/04/16 05:10:55;;;;;;;3.35;1.02;;;;;;;8.68;59.69;98301.66;5467771;26;20009;-70
2024/04/16 05:13:21;;;;;;;2.17;1.27;;;;;;;8.80;59.29;98308.28;5459349;26;20070;-71
2024/04/16 05:15:47;;;;;;;2.75;1.17;;;;;;;8.68;58.90;98291.28;5464427;26;20012;-70
2024/04/16 05:18:13;;;;;;;2.00;1.20;;;;;;;8.86;58.88;98341.84;5431427;26;20457;-71
2024/04/16 05:20:39;;;;;;;1.83;1.00;;;;;;;8.48;58.82;98291.78;5389052;26;20911;-71
2024/04/16 05:23:05;;;;;;;2.88;1.05;;;;;;;8.50;58.69;98311.59;5467347;26;20460;-72
2024/04/16 05:25:31;;;;;;;3.65;1.70;;;;;;;8.55;58.89;98321.84;5454962;26;20044;-72
2024/04/16 05:27:57;;;;;;;2.00;1.20;;;;;;;8.54;59.10;98326.19;5404667;26;20007;-71
2024/04/16 05:30:23;;;;;;;3.75;1.40;;;;;;;8.61;59.03;98339.03;5466619;26;20002;-70
2024/04/16 05:32:52;;;;;;;2.00;1.10;;;;;;;8.68;58.63;98333.66;5463205;26;20003;-71
2024/04/16 05:35:19;;;;;;;4.63;1.30;;;;;;;8.64;58.89;98333.75;5398850;26;20132;-71
2024/04/16 05:37:46;;;;;;;1.92;1.30;;;;;;;8.63;58.95;98329.44;5466147;26;20030;-69
2024/04/16 05:40:12;;;;;;;2.45;1.20;;;;;;;8.76;58.82;98342.97;5452307;26;20464;-71
2024/04/16 05:42:40;;;;;;;3.75;1.80;;;;;;;8.96;58.99;98345.06;5470865;26;20011;-73
2024/04/16 05:45:06;;;;;;;1.52;0.93;;;;;;;9.16;58.59;98348.00;5434475;26;20010;-72
2024/04/16 05:47:32;;;;;;;3.65;1.73;;;;;;;9.17;58.45;98359.22;5425708;26;20010;-74
2024/04/16 05:49:58;;;;;;;3.03;1.50;;;;;;;9.08;58.72;98316.19;5468139;26;20084;-72
2024/04/16 05:52:24;;;;;;;4.75;2.78;;;;;;;9.29;57.80;98351.13;5431443;26;20002;-72
2024/04/16 05:54:53;;;;;;;1.70;1.20;;;;;;;9.16;57.56;98357.50;5439469;26;19998;-70
2024/04/16 05:57:19;;;;;;;1.98;1.15;;;;;;;9.09;57.67;98363.78;5425337;26;20472;-71
2024/04/16 05:59:45;;;;;;;3.25;1.30;;;;;;;9.10;58.01;98355.09;5463388;26;20002;-71
2024/04/16 06:02:11;;;;;;;2.30;1.50;;;;;;;9.16;57.56;98350.59;5429761;26;20011;-71
2024/04/16 06:04:37;;;;;;;3.25;1.30;;;;;;;9.24;57.54;98358.19;5437985;26;21125;-71
2024/04/16 06:07:03;;;;;;;1.25;1.02;;;;;;;9.21;57.33;98354.81;5457721;26;20010;-72
2024/04/16 06:09:29;;;;;;;1.67;0.93;;;;;;;9.06;57.38;98338.72;5455813;26;20074;-71
2024/04/16 06:11:55;;;;;;;1.70;1.15;;;;;;;8.94;56.72;98344.25;5469447;26;20007;-71
2024/04/16 06:14:21;;;;;;;2.10;1.17;;;;;;;9.05;57.21;98365.56;5469603;26;20026;-72
2024/04/16 06:16:47;;;;;;;3.92;1.25;;;;;;;9.07;56.61;98371.59;5468799;26;19994;-73
2024/04/16 06:19:13;;;;;;;4.60;1.52;;;;;;;9.02;56.74;98395.06;5469368;26;20138;-71
2024/04/16 06:21:39;;;;;;;2.15;1.20;;;;;;;8.59;56.55;98337.31;5456199;26;20019;-71
2024/04/16 06:24:05;;;;;;;1.80;1.15;;;;;;;8.58;56.56;98368.47;5467202;26;20006;-70
2024/04/16 06:26:31;;;;;;;2.03;1.08;;;;;;;8.68;56.70;98400.22;5460346;26;19998;-71
2024/04/16 06:29:02;;;;;;;5.07;2.10;;;;;;;8.39;57.06;98355.91;5466477;26;20022;-72
2024/04/16 06:31:28;;;;;;;3.60;1.40;;;;;;;8.62;56.62;98408.13;5468499;26;19998;-69
2024/04/16 06:33:54;;;;;;;2.10;1.30;;;;;;;8.54;56.85;98410.91;5409788;26;20124;-72
2024/04/16 06:36:20;;;;;;;2.15;1.15;;;;;;;8.22;56.83;98369.22;5468294;26;20009;-70
2024/04/16 06:38:46;;;;;;;3.00;1.20;;;;;;;8.37;56.68;98406.06;5467490;26;20002;-71
2024/04/16 06:41:13;;;;;;;3.50;1.38;;;;;;;8.31;56.75;98404.44;5467138;26;20009;-71
2024/04/16 06:43:39;;;;;;;8.25;1.33;;;;;;;8.25;57.13;98408.03;5406875;26;20025;-70
2024/04/16 06:46:05;;;;;;;2.88;1.20;;;;;;;8.20;57.17;98403.84;5436038;26;20369;-73
2024/04/16 06:48:31;;;;;;;6.15;1.30;;;;;;;8.27;56.90;98420.97;5470000;26;20013;-74
2024/04/16 06:50:57;;;;;;;3.50;1.58;;;;;;;7.96;57.01;98390.53;5426433;26;20015;-71
2024/04/16 06:53:23;;;;;;;3.13;1.70;;;;;;;8.09;57.15;98404.06;5468523;26;19999;-71
2024/04/16 06:56:03;;;;;;;3.30;1.20;;;;;;;8.17;57.07;98406.50;5436665;26;20009;-72
2024/04/16 06:58:30;;;;;;;3.80;1.40;;;;;;;8.31;57.53;98430.38;5458845;26;20026;-72
2024/04/16 07:00:57;;;;;;;6.57;1.13;;;;;;;8.48;57.17;98449.91;5470318;26;20022;-72
2024/04/16 07:03:24;;;;;;;2.58;1.17;;;;;;;8.38;57.05;98423.34;5398582;26;20010;-71
2024/04/16 07:05:50;;;;;;;5.50;1.65;;;;;;;8.44;56.34;98425.78;5428453;26;20010;-71
2024/04/16 07:08:18;;;;;;;2.33;1.00;;;;;;;8.56;56.79;98442.84;5427823;26;20015;-71
2024/04/16 07:10:48;;;;;;;4.88;1.40;;;;;;;8.33;56.76;98407.03;5462295;26;20006;-71
2024/04/16 07:13:15;;;;;;;4.70;1.50;;;;;;;8.36;56.78;98407.81;5456242;26;20016;-72
2024/04/16 07:15:42;;;;;;;5.07;1.58;;;;;;;8.50;56.54;98422.22;5400670;26;20002;-71
2024/04/16 07:18:08;;;;;;;9.43;1.70;;;;;;;8.72;56.28;98453.72;5437864;26;20071;-72
2024/04/16 07:20:34;;;;;;;3.33;1.20;;;;;;;8.63;55.92;98438.34;5441691;26;20030;-73
2024/04/16 07:23:01;;;;;;;5.10;2.10;;;;;;;8.64;56.07;98446.13;5422534;26;19997;-70
2024/04/16 07:25:27;;;;;;;7.80;2.03;;;;;;;8.73;56.00;98445.88;5436584;26;20002;-73
2024/04/16 07:27:54;;;;;;;4.90;1.65;;;;;;;8.94;55.95;98454.06;5436530;26;20009;-73
2024/04/16 07:30:20;;;;;;;3.30;1.38;;;;;;;8.99;55.94;98426.25;5427588;26;20015;-73
2024/04/16 07:32:46;;;;;;;7.53;1.60;;;;;;;9.12;55.63;98426.81;5484310;26;20077;-73
2024/04/16 07:35:12;;;;;;;5.13;1.10;;;;;;;9.52;55.27;98463.91;5430418;26;20002;-71
2024/04/16 07:37:38;;;;;;;5.55;1.38;;;;;;;9.62;54.50;98473.16;5437247;26;20053;-73
2024/04/16 07:40:04;;;;;;;7.35;1.85;;;;;;;9.54;54.52;98456.94;5468580;26;20013;-72
2024/04/16 07:42:31;;;;;;;8.00;2.20;;;;;;;9.50;53.78;98445.75;5466509;26;20020;-72
2024/04/16 07:44:58;;;;;;;4.15;1.80;;;;;;;9.54;53.83;98454.34;5432410;26;20010;-73
2024/04/16 07:47:24;;;;;;;5.35;2.00;;;;;;;9.67;54.05;98475.66;5407689;26;20070;-71
2024/04/16 07:49:56;;;;;;;11.77;2.03;;;;;;;9.72;53.84;98480.72;5467157;26;20014;-73
2024/04/16 07:52:23;;;;;;;4.95;2.05;;;;;;;9.57;52.96;98449.06;5428938;26;19994;-71
2024/04/16 07:54:49;;;;;;;2.88;1.50;;;;;;;9.79;53.42;98480.50;5465288;26;20067;-71
2024/04/16 07:57:16;;;;;;;8.38;1.38;;;;;;;9.86;53.28;98485.53;5433935;26;20056;-72
2024/04/16 07:59:41;;;;;;;4.43;1.10;;;;;;;9.61;52.96;98442.03;5408721;26;20006;-72
2024/04/16 08:02:07;;;;;;;5.00;1.30;;;;;;;9.89;53.61;98481.09;5409922;26;19998;-72
2024/04/16 08:04:33;;;;;;;7.22;1.25;;;;;;;10.01;53.26;98474.72;5467174;26;20003;-72
2024/04/16 08:07:00;;;;;;;2.63;0.98;;;;;;;9.80;53.04;98414.66;5464738;26;20409;-72
2024/04/16 08:09:29;;;;;;;2.28;1.05;;;;;;;10.37;52.99;98424.31;5427629;26;20006;-71
2024/04/16 08:11:55;;;;;;;6.55;1.45;;;;;;;10.73;52.05;98438.88;5465157;26;19998;-71
2024/04/16 08:14:26;;;;;;;6.63;1.20;;;;;;;11.04;51.97;98450.91;5456501;26;20010;-71
2024/04/16 08:16:52;;;;;;;4.70;1.35;;;;;;;11.22;51.13;98445.13;5426208;26;20025;-73
2024/04/16 08:19:21;;;;;;;3.30;1.17;;;;;;;12.18;52.50;98433.13;5465103;26;19998;-72
2024/04/16 08:21:47;;;;;;;4.65;2.00;;;;;;;14.53;52.01;98411.16;5430348;26;20021;-73
2024/04/16 08:24:13;;;;;;;3.30;1.42;;;;;;;16.01;49.48;98378.50;5466412;26;20034;-71
2024/04/16 08:26:39;;;;;;;1.42;1.23;;;;;;;18.93;46.78;98394.56;5463127;26;20055;-72
2024/04/16 08:29:05;;;;;;;1.73;0.80;;;;;;;19.91;43.04;98387.25;5468071;26;20146;-75
2024/04/16 08:31:31;;;;;;;8.75;1.27;;;;;;;19.98;40.93;98393.75;5464968;26;20109;-73
2024/04/16 08:33:58;;;;;;;8.55;1.60;;;;;;;20.28;39.77;98398.69;5466146;26;20018;-73
2024/04/16 08:36:25;;;;;;;6.43;1.40;;;;;;;21.34;38.79;98402.44;5423098;26;20014;-71
2024/04/16 08:38:50;;;;;;;2.15;1.30;;;;;;;20.47;35.96;98345.38;5436625;26;20002;-72
2024/04/16 08:41:16;;;;;;;7.95;2.00;;;;;;;19.53;35.15;98373.91;5454577;26;20011;-74
2024/04/16 08:43:44;;;;;;;8.82;1.83;;;;;;;19.32;35.78;98368.31;5435312;26;20318;-70
2024/04/16 08:46:12;;;;;;;4.80;1.23;;;;;;;19.72;35.80;98380.59;5466414;26;19998;-72
2024/04/16 08:48:58;;;;;;;1.95;1.02;;;;;;;20.75;34.78;98372.41;5466777;26;20011;-73
2024/04/16 08:51:26;;;;;;;2.25;1.30;;;;;;;21.67;34.06;98407.97;5406302;26;20099;-72
2024/04/16 08:53:54;;;;;;;1.85;1.05;;;;;;;21.93;32.97;98387.41;5463612;26;20006;-70
2024/04/16 08:56:22;;;;;;;4.07;1.00;;;;;;;23.41;32.38;98388.81;5465088;26;20475;-74
2024/04/16 08:58:49;;;;;;;2.88;1.30;;;;;;;24.53;31.30;98348.19;5438759;26;19998;-72
2024/04/16 09:01:16;;;;;;;5.82;1.35;;;;;;;26.77;29.95;98381.47;5469661;26;19998;-72
2024/04/16 09:03:49;;;;;;;3.90;2.15;;;;;;;28.40;28.66;98349.81;5429486;26;20077;-72
2024/04/16 09:06:17;;;;;;;3.95;1.77;;;;;;;30.46;26.65;98360.41;5410879;26;19999;-71
2024/04/16 09:08:44;;;;;;;5.00;1.40;;;;;;;31.29;25.55;98358.00;5460348;26;20035;-74
2024/04/16 09:11:12;;;;;;;2.67;1.42;;;;;;;31.90;23.74;98348.97;5441207;26;19998;-72
2024/04/16 09:13:43;;;;;;;7.95;1.90;;;;;;;32.50;22.54;98386.53;5461293;26;20025;-73
2024/04/16 09:16:13;;;;;;;5.78;2.17;;;;;;;32.47;22.61;98365.38;5491707;26;20010;-72
2024/04/16 09:18:39;;;;;;;7.70;1.60;;;;;;;33.71;21.72;98397.59;5469407;26;20022;-71
2024/04/16 09:21:06;;;;;;;3.65;1.50;;;;;;;34.49;20.44;98373.13;5468976;26;20013;-75
2024/04/16 09:23:35;;;;;;;12.10;1.63;;;;;;;34.63;19.70;98362.31;5435408;26;20108;-72
2024/04/16 09:26:01;;;;;;;7.38;2.20;;;;;;;34.59;18.89;98363.78;5468348;26;20074;-73
2024/04/16 09:28:28;;;;;;;9.27;3.40;;;;;;;35.33;18.78;98359.28;5412552;26;20480;-74
2024/04/16 09:30:57;;;;;;;5.20;2.85;;;;;;;35.50;17.89;98340.78;5411129;26;20325;-74
2024/04/16 09:33:23;;;;;;;8.07;1.95;;;;;;;35.51;17.97;98344.31;5459834;26;20002;-72
2024/04/16 09:35:49;;;;;;;5.22;1.92;;;;;;;34.94;17.80;98337.47;5408399;26;20002;-71
2024/04/16 09:38:18;;;;;;;6.70;1.95;;;;;;;35.70;16.53;98337.19;5471136;26;20009;-72
2024/04/16 09:40:46;;;;;;;4.72;1.55;;;;;;;33.93;16.33;98344.44;5489467;26;20002;-72
2024/04/16 09:43:13;;;;;;;3.50;1.20;;;;;;;33.04;16.71;98357.50;5454712;26;19998;-72
2024/04/16 09:45:40;;;;;;;4.00;1.42;;;;;;;31.36;17.75;98368.84;5409966;26;20807;-72
2024/04/16 09:48:08;;;;;;;10.02;1.42;;;;;;;31.95;17.39;98357.31;5440501;26;20022;-72
2024/04/16 09:50:36;;;;;;;11.73;2.03;;;;;;;32.12;18.35;98333.72;5488552;26;20469;-72
2024/04/16 09:53:05;;;;;;;5.55;1.42;;;;;;;31.63;17.32;98328.94;5469174;26;19998;-72
2024/04/16 09:55:33;;;;;;;10.48;1.63;;;;;;;32.44;17.95;98325.44;5469271;26;20006;-71
2024/04/16 09:58:02;;;;;;;4.18;1.52;;;;;;;32.57;16.52;98333.63;5407437;26;20124;-70
2024/04/16 10:00:28;;;;;;;3.45;1.30;;;;;;;32.78;17.24;98350.81;5470403;26;20353;-71
2024/04/16 10:03:00;;;;;;;12.20;2.72;;;;;;;32.95;16.51;98372.94;5468312;26;20006;-73
2024/04/16 10:05:27;;;;;;;3.15;1.65;;;;;;;32.37;17.20;98373.75;5455813;26;20005;-73
2024/04/16 10:07:52;;;;;;;2.40;1.30;;;;;;;32.32;16.40;98356.53;5468344;26;20009;-73
2024/04/16 10:10:18;;;;;;;6.07;1.73;;;;;;;33.48;16.05;98369.03;5469851;26;20014;-73
2024/04/16 10:12:47;;;;;;;19.92;2.50;;;;;;;33.33;16.16;98369.94;5430835;26;20034;-72
2024/04/16 10:15:16;;;;;;;3.72;1.17;;;;;;;32.05;16.27;98354.34;5465392;26;20014;-74
2024/04/16 10:17:55;;;;;;;2.28;1.40;;;;;;;31.07;16.79;98386.50;5457858;26;20476;-74
2024/04/16 10:20:23;;;;;;;4.78;1.33;;;;;;;29.31;17.62;98391.88;5454492;26;20026;-71
2024/04/16 10:22:58;;;;;;;8.13;1.63;;;;;;;27.93;18.25;98399.22;5455244;26;20099;-72
2024/04/16 10:25:51;;;;;;;4.78;1.73;;;;;;;28.25;18.25;98384.38;5489683;26;20011;-73
2024/04/16 10:28:30;;;;;;;6.97;5.57;;;;;;;28.43;18.29;98414.69;5426555;26;20016;-74
2024/04/16 10:30:59;;;;;;;;;;;;;;;28.36;18.55;98415.31;5467658;26;20409;-71
2024/04/16 10:33:33;;;;;;;3.63;2.40;;;;;;;28.19;19.19;98395.69;5468870;26;19995;-72
2024/04/16 10:35:59;;;;;;;11.05;1.73;;;;;;;28.60;19.16;98386.13;5465646;26;22368;-72
2024/04/16 10:38:26;;;;;;;7.38;2.00;;;;;;;28.08;18.61;98380.75;5469379;26;20117;-72
2024/04/16 10:40:57;;;;;;;11.57;1.75;;;;;;;26.54;18.52;98365.09;5468901;26;20075;-71
2024/04/16 10:43:27;;;;;;;11.13;2.70;;;;;;;25.46;20.51;98400.16;5407665;26;20083;-72
2024/04/16 10:45:56;;;;;;;5.40;4.15;;;;;;;24.75;21.13;98418.06;5455629;26;20368;-73
2024/04/16 10:48:23;;;;;;;2.22;1.00;;;;;;;23.98;21.99;98368.03;5426965;26;20002;-74
2024/04/16 10:50:50;;;;;;;7.03;2.25;;;;;;;23.84;22.21;98401.06;5468314;26;20464;-71
2024/04/16 10:53:19;;;;;;;3.53;1.20;;;;;;;23.70;22.75;98426.19;5469967;26;20013;-70
2024/04/16 10:55:50;;;;;;;2.72;1.05;;;;;;;23.32;23.23;98427.59;5438839;26;20401;-71
2024/04/16 10:58:19;;;;;;;5.60;1.67;;;;;;;23.08;23.25;98412.72;5470432;26;22359;-75
2024/04/16 11:00:46;;;;;;;9.85;4.38;;;;;;;23.05;23.47;98417.44;5438497;26;19998;-73
2024/04/16 11:03:12;;;;;;;5.10;1.50;;;;;;;22.91;23.45;98423.88;5410510;26;20017;-71
2024/04/16 11:05:40;;;;;;;4.03;1.15;;;;;;;22.52;23.07;98390.75;5468201;26;20222;-71
2024/04/16 11:08:07;;;;;;;5.28;1.38;;;;;;;21.65;23.57;98416.03;5438219;26;20002;-71
2024/04/16 11:10:49;;;;;;;3.33;1.08;;;;;;;20.45;23.83;98364.94;5428466;26;20487;-73
2024/04/16 11:13:16;;;;;;;1.90;1.00;;;;;;;19.95;24.75;98418.59;5424978;26;20013;-72
2024/04/16 11:15:51;;;;;;;6.00;1.00;;;;;;;19.52;25.15;98409.19;5394902;26;20006;-71
2024/04/16 11:18:25;;;;;;;4.65;1.00;;;;;;;19.46;25.47;98433.34;5457551;26;20025;-71
2024/04/16 11:20:55;;;;;;;15.02;3.65;;;;;;;19.27;26.01;98416.09;5430818;26;20002;-71
2024/04/16 11:23:21;;;;;;;7.82;1.35;;;;;;;19.33;26.29;98416.63;5456757;26;20065;-73
2024/04/16 11:25:47;;;;;;;11.52;4.68;;;;;;;19.51;26.69;98394.31;5430611;26;20078;-72
2024/04/16 11:28:14;;;;;;;10.43;1.20;;;;;;;19.71;26.55;98418.47;5406597;26;19998;-72
2024/04/16 11:30:56;;;;;;;2.92;1.20;;;;;;;19.51;26.61;98418.03;5436197;26;20010;-71
2024/04/16 11:33:27;;;;;;;9.60;1.42;;;;;;;19.21;26.87;98392.78;5408756;26;20004;-71
2024/04/16 11:35:53;;;;;;;7.43;1.58;;;;;;;19.45;26.83;98426.38;5467994;26;20002;-72
2024/04/16 11:38:20;;;;;;;9.20;2.15;;;;;;;19.62;26.71;98440.19;5438307;26;20011;-74
2024/04/16 11:40:46;;;;;;;9.60;1.38;;;;;;;19.27;27.18;98407.34;5400763;26;20009;-73